createdAt,value
2017-04-27T00:00:05.092Z,0
2017-04-27T00:01:05.662Z,0
2017-04-27T00:02:06.232Z,0
2017-04-27T00:03:06.803Z,0
2017-04-27T00:04:07.385Z,0
2017-04-27T00:05:07.954Z,0
2017-04-27T00:06:08.524Z,0
2017-04-27T00:07:09.093Z,0
2017-04-27T00:08:09.663Z,0
2017-04-27T00:09:10.232Z,0
2017-04-27T00:10:10.800Z,0
2017-04-27T00:11:11.369Z,0
2017-04-27T00:12:11.938Z,0
2017-04-27T00:13:12.509Z,0
2017-04-27T00:14:13.093Z,0
2017-04-27T00:15:13.662Z,0
2017-04-27T00:16:14.231Z,0
2017-04-27T00:17:14.800Z,0
2017-04-27T00:18:15.386Z,0
2017-04-27T00:19:15.970Z,0
2017-04-27T00:20:16.538Z,0
2017-04-27T00:21:17.110Z,0
2017-04-27T00:22:17.679Z,0
2017-04-27T00:23:18.249Z,0
2017-04-27T00:24:18.834Z,0
2017-04-27T00:25:19.404Z,0
2017-04-27T00:26:19.974Z,0
2017-04-27T00:27:20.543Z,0
2017-04-27T00:28:21.113Z,0
2017-04-27T00:29:21.687Z,0
2017-04-27T00:30:22.252Z,0
2017-04-27T00:31:22.836Z,0
2017-04-27T00:32:23.412Z,0
2017-04-27T00:33:23.974Z,0
2017-04-27T00:34:24.546Z,0
2017-04-27T00:35:25.109Z,0
2017-04-27T00:36:25.679Z,0
2017-04-27T00:37:26.249Z,0
2017-04-27T00:38:26.816Z,0
2017-04-27T00:39:27.386Z,0
2017-04-27T00:40:27.956Z,0
2017-04-27T00:41:28.525Z,0
2017-04-27T00:42:29.096Z,0
2017-04-27T00:43:29.666Z,0
2017-04-27T00:44:30.237Z,0
2017-04-27T00:45:30.807Z,0
2017-04-27T00:46:31.378Z,0
2017-04-27T00:47:31.960Z,0
2017-04-27T00:48:32.530Z,0
2017-04-27T00:49:33.104Z,0
2017-04-27T00:50:33.674Z,0
2017-04-27T00:51:34.245Z,0
2017-04-27T00:52:34.814Z,0
2017-04-27T00:53:35.383Z,0
2017-04-27T00:54:35.953Z,0
2017-04-27T00:55:36.523Z,0
2017-04-27T00:56:37.093Z,0
2017-04-27T00:57:37.662Z,0
2017-04-27T00:58:38.232Z,0
2017-04-27T00:59:38.801Z,0
2017-04-27T01:00:39.376Z,0
2017-04-27T01:01:39.941Z,0
2017-04-27T01:02:40.510Z,0
2017-04-27T01:03:41.080Z,0
2017-04-27T01:04:41.649Z,0
2017-04-27T01:05:42.218Z,0
2017-04-27T01:06:42.787Z,0
2017-04-27T01:07:43.356Z,0
2017-04-27T01:08:43.926Z,0
2017-04-27T01:09:44.495Z,0
2017-04-27T01:10:45.066Z,0
2017-04-27T01:11:45.639Z,0
2017-04-27T01:12:46.207Z,0
2017-04-27T01:13:46.778Z,0
2017-04-27T01:14:47.371Z,0
2017-04-27T01:15:47.932Z,0
2017-04-27T01:16:48.502Z,0
2017-04-27T01:17:49.071Z,0
2017-04-27T01:18:49.640Z,0
2017-04-27T01:19:50.222Z,0
2017-04-27T01:20:50.792Z,0
2017-04-27T01:21:51.363Z,0
2017-04-27T01:22:51.932Z,0
2017-04-27T01:23:52.505Z,0
2017-04-27T01:24:53.070Z,0
2017-04-27T01:25:53.639Z,0
2017-04-27T01:26:54.208Z,0
2017-04-27T01:27:54.777Z,0
2017-04-27T01:28:55.346Z,0
2017-04-27T01:29:55.915Z,0
2017-04-27T01:30:56.487Z,0
2017-04-27T01:31:57.052Z,0
2017-04-27T01:32:57.635Z,0
2017-04-27T01:33:58.203Z,0
2017-04-27T01:34:58.771Z,0
2017-04-27T01:35:59.338Z,0
2017-04-27T01:36:59.908Z,0
2017-04-27T01:38:00.473Z,0
2017-04-27T01:39:01.043Z,0
2017-04-27T01:40:01.607Z,0
2017-04-27T01:41:02.179Z,0
2017-04-27T01:42:02.748Z,0
2017-04-27T01:43:03.310Z,0
2017-04-27T01:44:03.879Z,0
2017-04-27T01:45:04.448Z,0
2017-04-27T01:46:05.015Z,0
2017-04-27T01:47:05.596Z,0
2017-04-27T01:48:06.165Z,0
2017-04-27T01:49:06.731Z,0
2017-04-27T01:50:07.300Z,0
2017-04-27T01:51:07.869Z,0
2017-04-27T01:52:08.439Z,0
2017-04-27T01:53:09.007Z,0
2017-04-27T01:54:09.576Z,0
2017-04-27T01:55:10.157Z,0
2017-04-27T01:56:10.727Z,0
2017-04-27T01:57:11.298Z,0
2017-04-27T01:58:11.866Z,0
2017-04-27T01:59:12.435Z,0
2017-04-27T02:00:13.002Z,0
2017-04-27T02:01:13.570Z,0
2017-04-27T02:02:14.137Z,0
2017-04-27T02:03:14.706Z,0
2017-04-27T02:04:15.286Z,0
2017-04-27T02:05:15.855Z,0
2017-04-27T02:06:16.423Z,0
2017-04-27T02:07:16.992Z,0
2017-04-27T02:08:17.563Z,0
2017-04-27T02:09:18.133Z,0
2017-04-27T02:10:18.714Z,0
2017-04-27T02:11:19.285Z,0
2017-04-27T02:12:19.854Z,0
2017-04-27T02:13:20.424Z,0
2017-04-27T02:14:20.991Z,0
2017-04-27T02:15:21.561Z,0
2017-04-27T02:16:22.127Z,0
2017-04-27T02:17:22.698Z,0
2017-04-27T02:18:23.265Z,0
2017-04-27T02:19:23.833Z,0
2017-04-27T02:20:24.402Z,0
2017-04-27T02:21:24.972Z,0
2017-04-27T02:22:25.538Z,0
2017-04-27T02:23:26.118Z,0
2017-04-27T02:24:26.694Z,0
2017-04-27T02:25:27.271Z,0
2017-04-27T02:26:27.839Z,0
2017-04-27T02:27:28.405Z,0
2017-04-27T02:28:28.974Z,0
2017-04-27T02:29:29.542Z,0
2017-04-27T02:30:30.109Z,0
2017-04-27T02:31:30.677Z,0
2017-04-27T02:32:31.244Z,0
2017-04-27T02:33:31.812Z,0
2017-04-27T02:34:32.379Z,0
2017-04-27T02:35:32.946Z,0
2017-04-27T02:36:33.514Z,0
2017-04-27T02:37:34.082Z,0
2017-04-27T02:38:34.650Z,0
2017-04-27T02:39:35.219Z,0
2017-04-27T02:40:35.786Z,0
2017-04-27T02:41:36.353Z,0
2017-04-27T02:42:36.920Z,0
2017-04-27T02:43:37.489Z,0
2017-04-27T02:44:38.055Z,0
2017-04-27T02:45:38.622Z,0
2017-04-27T02:46:39.190Z,0
2017-04-27T02:47:39.757Z,0
2017-04-27T02:48:40.326Z,0
2017-04-27T02:49:40.906Z,0
2017-04-27T02:50:41.474Z,0
2017-04-27T02:51:42.041Z,0
2017-04-27T02:52:42.610Z,0
2017-04-27T02:53:43.185Z,0
2017-04-27T02:54:43.747Z,0
2017-04-27T02:55:44.322Z,0
2017-04-27T02:56:44.883Z,0
2017-04-27T02:57:45.450Z,0
2017-04-27T02:58:46.018Z,0
2017-04-27T02:59:46.587Z,0
2017-04-27T03:00:47.155Z,0
2017-04-27T03:01:47.723Z,0
2017-04-27T03:02:48.293Z,0
2017-04-27T03:03:48.862Z,0
2017-04-27T03:04:49.429Z,0
2017-04-27T03:05:49.998Z,0
2017-04-27T03:06:50.570Z,0
2017-04-27T03:07:51.135Z,0
2017-04-27T03:08:51.701Z,0
2017-04-27T03:09:52.271Z,0
2017-04-27T03:10:52.839Z,0
2017-04-27T03:11:53.409Z,0
2017-04-27T03:12:53.975Z,0
2017-04-27T03:13:54.544Z,0
2017-04-27T03:14:55.111Z,0
2017-04-27T03:15:55.695Z,0
2017-04-27T03:16:56.263Z,0
2017-04-27T03:17:56.829Z,0
2017-04-27T03:18:57.399Z,0
2017-04-27T03:19:57.966Z,0
2017-04-27T03:20:58.535Z,0
2017-04-27T03:21:59.102Z,0
2017-04-27T03:22:59.671Z,0
2017-04-27T03:24:00.240Z,0
2017-04-27T03:25:00.808Z,0
2017-04-27T03:26:01.376Z,0
2017-04-27T03:27:01.946Z,0
2017-04-27T03:28:02.513Z,0
2017-04-27T03:29:03.082Z,0
2017-04-27T03:30:03.649Z,0
2017-04-27T03:31:04.219Z,0
2017-04-27T03:32:04.787Z,0
2017-04-27T03:33:05.356Z,0
2017-04-27T03:34:05.935Z,0
2017-04-27T03:35:06.503Z,0
2017-04-27T03:36:07.072Z,0
2017-04-27T03:37:07.642Z,0
2017-04-27T03:38:08.208Z,0
2017-04-27T03:39:08.788Z,0
2017-04-27T03:40:09.354Z,0
2017-04-27T03:41:09.922Z,0
2017-04-27T03:42:10.488Z,0
2017-04-27T03:43:11.056Z,0
2017-04-27T03:44:11.623Z,0
2017-04-27T03:45:12.190Z,0
2017-04-27T03:46:12.757Z,4
2017-04-27T03:47:13.337Z,0
2017-04-27T03:48:13.904Z,0
2017-04-27T03:49:14.472Z,0
2017-04-27T03:50:15.041Z,4
2017-04-27T03:51:15.622Z,0
2017-04-27T03:52:16.201Z,4
2017-04-27T03:53:16.781Z,0
2017-04-27T03:54:17.351Z,4
2017-04-27T03:55:17.921Z,0
2017-04-27T03:56:18.487Z,4
2017-04-27T03:57:19.057Z,4
2017-04-27T03:58:19.623Z,4
2017-04-27T03:59:20.192Z,4
2017-04-27T04:00:20.759Z,4
2017-04-27T04:01:21.327Z,8
2017-04-27T04:02:21.892Z,8
2017-04-27T04:03:22.461Z,8
2017-04-27T04:04:23.030Z,12
2017-04-27T04:05:23.604Z,12
2017-04-27T04:06:24.168Z,12
2017-04-27T04:07:24.737Z,16
2017-04-27T04:08:25.307Z,16
2017-04-27T04:09:25.875Z,16
2017-04-27T04:10:26.444Z,16
2017-04-27T04:11:27.011Z,20
2017-04-27T04:12:27.579Z,20
2017-04-27T04:13:28.150Z,28
2017-04-27T04:14:28.715Z,28
2017-04-27T04:15:29.283Z,28
2017-04-27T04:16:29.851Z,32
2017-04-27T04:17:30.418Z,36
2017-04-27T04:18:30.988Z,36
2017-04-27T04:19:31.555Z,40
2017-04-27T04:20:32.125Z,44
2017-04-27T04:21:32.696Z,48
2017-04-27T04:22:33.265Z,52
2017-04-27T04:23:33.833Z,56
2017-04-27T04:24:34.403Z,56
2017-04-27T04:25:34.970Z,60
2017-04-27T04:26:35.540Z,64
2017-04-27T04:27:36.109Z,68
2017-04-27T04:28:36.677Z,72
2017-04-27T04:29:37.246Z,76
2017-04-27T04:30:37.816Z,80
2017-04-27T04:31:38.398Z,84
2017-04-27T04:32:38.965Z,88
2017-04-27T04:33:39.534Z,92
2017-04-27T04:34:40.102Z,96
2017-04-27T04:35:40.671Z,100
2017-04-27T04:36:41.241Z,104
2017-04-27T04:37:41.811Z,108
2017-04-27T04:38:42.381Z,112
2017-04-27T04:39:42.953Z,120
2017-04-27T04:40:43.525Z,120
2017-04-27T04:41:44.095Z,124
2017-04-27T04:42:44.667Z,132
2017-04-27T04:43:45.236Z,136
2017-04-27T04:44:45.806Z,140
2017-04-27T04:45:46.375Z,144
2017-04-27T04:46:46.943Z,148
2017-04-27T04:47:47.515Z,152
2017-04-27T04:48:48.085Z,156
2017-04-27T04:49:48.656Z,160
2017-04-27T04:50:49.227Z,164
2017-04-27T04:51:49.797Z,168
2017-04-27T04:52:50.366Z,172
2017-04-27T04:53:50.936Z,172
2017-04-27T04:54:51.505Z,164
2017-04-27T04:55:52.075Z,168
2017-04-27T04:56:52.647Z,168
2017-04-27T04:57:53.217Z,172
2017-04-27T04:58:53.789Z,176
2017-04-27T04:59:54.358Z,180
2017-04-27T05:00:54.929Z,184
2017-04-27T05:01:55.499Z,192
2017-04-27T05:02:56.065Z,204
2017-04-27T05:03:56.636Z,232
2017-04-27T05:04:57.207Z,244
2017-04-27T05:05:57.778Z,252
2017-04-27T05:06:58.350Z,252
2017-04-27T05:07:58.922Z,260
2017-04-27T05:08:59.491Z,264
2017-04-27T05:10:00.070Z,272
2017-04-27T05:11:00.632Z,272
2017-04-27T05:12:01.203Z,276
2017-04-27T05:13:01.775Z,276
2017-04-27T05:14:02.347Z,284
2017-04-27T05:15:02.919Z,284
2017-04-27T05:16:03.504Z,288
2017-04-27T05:17:04.077Z,296
2017-04-27T05:18:04.664Z,292
2017-04-27T05:19:05.283Z,284
2017-04-27T05:20:05.857Z,284
2017-04-27T05:21:06.427Z,304
2017-04-27T05:22:07.001Z,316
2017-04-27T05:23:07.572Z,316
2017-04-27T05:24:08.144Z,320
2017-04-27T05:25:08.718Z,324
2017-04-27T05:26:09.289Z,328
2017-04-27T05:27:09.862Z,320
2017-04-27T05:28:10.434Z,320
2017-04-27T05:29:11.003Z,336
2017-04-27T05:30:11.607Z,336
2017-04-27T05:31:12.153Z,340
2017-04-27T05:32:12.736Z,348
2017-04-27T05:33:13.308Z,352
2017-04-27T05:34:13.880Z,356
2017-04-27T05:35:14.451Z,360
2017-04-27T05:36:15.023Z,360
2017-04-27T05:37:15.593Z,360
2017-04-27T05:38:16.169Z,364
2017-04-27T05:39:16.749Z,368
2017-04-27T05:40:17.318Z,368
2017-04-27T05:41:17.891Z,372
2017-04-27T05:42:18.462Z,376
2017-04-27T05:43:19.034Z,376
2017-04-27T05:44:19.619Z,384
2017-04-27T05:45:20.202Z,388
2017-04-27T05:46:20.786Z,392
2017-04-27T05:47:21.355Z,396
2017-04-27T05:48:21.927Z,400
2017-04-27T05:49:22.500Z,404
2017-04-27T05:50:23.072Z,408
2017-04-27T05:51:23.642Z,412
2017-04-27T05:52:24.218Z,416
2017-04-27T05:53:24.787Z,416
2017-04-27T05:54:25.358Z,424
2017-04-27T05:55:25.930Z,424
2017-04-27T05:56:26.503Z,428
2017-04-27T05:57:27.075Z,432
2017-04-27T05:58:27.645Z,436
2017-04-27T05:59:28.218Z,440
2017-04-27T06:00:28.789Z,448
2017-04-27T06:01:29.359Z,448
2017-04-27T06:02:29.933Z,456
2017-04-27T06:03:30.503Z,460
2017-04-27T06:04:31.077Z,460
2017-04-27T06:05:31.648Z,468
2017-04-27T06:06:32.220Z,472
2017-04-27T06:07:32.790Z,476
2017-04-27T06:08:33.362Z,480
2017-04-27T06:09:33.936Z,480
2017-04-27T06:10:34.508Z,488
2017-04-27T06:11:35.081Z,488
2017-04-27T06:12:35.652Z,488
2017-04-27T06:13:36.222Z,496
2017-04-27T06:14:36.796Z,496
2017-04-27T06:15:37.381Z,500
2017-04-27T06:16:37.953Z,504
2017-04-27T06:17:38.540Z,508
2017-04-27T06:18:39.112Z,508
2017-04-27T06:19:39.682Z,512
2017-04-27T06:20:40.255Z,516
2017-04-27T06:21:40.828Z,516
2017-04-27T06:22:41.403Z,520
2017-04-27T06:23:41.974Z,520
2017-04-27T06:24:42.548Z,524
2017-04-27T06:25:43.122Z,528
2017-04-27T06:26:43.696Z,528
2017-04-27T06:27:44.281Z,528
2017-04-27T06:28:44.855Z,532
2017-04-27T06:29:45.428Z,536
2017-04-27T06:30:45.999Z,536
2017-04-27T06:31:46.570Z,540
2017-04-27T06:32:47.141Z,544
2017-04-27T06:33:47.715Z,548
2017-04-27T06:34:48.389Z,548
2017-04-27T06:35:48.975Z,548
2017-04-27T06:36:49.547Z,548
2017-04-27T06:37:50.122Z,552
2017-04-27T06:38:50.707Z,556
2017-04-27T06:39:51.279Z,556
2017-04-27T06:40:51.854Z,560
2017-04-27T06:41:52.426Z,560
2017-04-27T06:42:52.999Z,564
2017-04-27T06:43:53.571Z,564
2017-04-27T06:44:54.244Z,564
2017-04-27T06:45:54.830Z,568
2017-04-27T06:46:55.411Z,568
2017-04-27T06:47:55.979Z,572
2017-04-27T06:48:56.561Z,572
2017-04-27T06:49:57.135Z,576
2017-04-27T06:50:57.709Z,576
2017-04-27T06:51:58.296Z,580
2017-04-27T06:52:58.882Z,580
2017-04-27T06:53:59.458Z,584
2017-04-27T06:55:00.029Z,584
2017-04-27T06:56:00.602Z,588
2017-04-27T06:57:01.176Z,592
2017-04-27T06:58:01.749Z,592
2017-04-27T06:59:02.334Z,592
2017-04-27T07:00:02.910Z,592
2017-04-27T07:01:03.485Z,592
2017-04-27T07:02:04.056Z,596
2017-04-27T07:03:04.629Z,604
2017-04-27T07:04:05.203Z,604
2017-04-27T07:05:05.777Z,604
2017-04-27T07:06:06.352Z,608
2017-04-27T07:07:06.924Z,612
2017-04-27T07:08:07.497Z,608
2017-04-27T07:09:08.085Z,608
2017-04-27T07:10:08.659Z,612
2017-04-27T07:11:09.230Z,620
2017-04-27T07:12:09.804Z,616
2017-04-27T07:13:10.378Z,616
2017-04-27T07:14:10.951Z,620
2017-04-27T07:15:11.526Z,620
2017-04-27T07:16:12.113Z,624
2017-04-27T07:17:12.700Z,624
2017-04-27T07:18:13.274Z,632
2017-04-27T07:19:13.848Z,632
2017-04-27T07:20:14.522Z,640
2017-04-27T07:21:15.095Z,640
2017-04-27T07:22:15.668Z,648
2017-04-27T07:23:16.240Z,644
2017-04-27T07:24:16.814Z,648
2017-04-27T07:25:17.389Z,648
2017-04-27T07:26:17.962Z,652
2017-04-27T07:27:18.536Z,660
2017-04-27T07:28:19.112Z,668
2017-04-27T07:29:19.683Z,672
2017-04-27T07:30:20.255Z,688
2017-04-27T07:31:20.830Z,700
2017-04-27T07:32:21.405Z,720
2017-04-27T07:33:21.977Z,732
2017-04-27T07:34:22.555Z,724
2017-04-27T07:35:23.123Z,736
2017-04-27T07:36:23.697Z,632
2017-04-27T07:37:24.271Z,768
2017-04-27T07:38:24.845Z,776
2017-04-27T07:39:25.428Z,796
2017-04-27T07:40:26.001Z,792
2017-04-27T07:41:26.575Z,804
2017-04-27T07:42:27.150Z,828
2017-04-27T07:43:27.724Z,840
2017-04-27T07:44:28.299Z,820
2017-04-27T07:45:28.871Z,800
2017-04-27T07:46:29.442Z,808
2017-04-27T07:47:30.015Z,816
2017-04-27T07:48:30.652Z,832
2017-04-27T07:49:31.226Z,644
2017-04-27T07:50:31.800Z,792
2017-04-27T07:51:32.375Z,752
2017-04-27T07:52:32.947Z,868
2017-04-27T07:53:33.521Z,856
2017-04-27T07:54:34.095Z,736
2017-04-27T07:55:34.770Z,528
2017-04-27T07:56:35.346Z,768
2017-04-27T07:57:35.921Z,872
2017-04-27T07:58:36.494Z,856
2017-04-27T07:59:37.081Z,564
2017-04-27T08:00:37.653Z,580
2017-04-27T08:01:38.228Z,584
2017-04-27T08:02:38.801Z,616
2017-04-27T08:03:39.374Z,656
2017-04-27T08:04:39.949Z,1016
2017-04-27T08:05:40.524Z,984
2017-04-27T08:06:41.099Z,984
2017-04-27T08:07:41.671Z,980
2017-04-27T08:08:42.246Z,972
2017-04-27T08:09:42.819Z,636
2017-04-27T08:10:43.393Z,956
2017-04-27T08:11:43.974Z,960
2017-04-27T08:12:44.556Z,956
2017-04-27T08:13:45.130Z,976
2017-04-27T08:14:45.715Z,976
2017-04-27T08:15:46.289Z,668
2017-04-27T08:16:46.864Z,976
2017-04-27T08:17:47.440Z,972
2017-04-27T08:18:48.013Z,964
2017-04-27T08:19:48.587Z,956
2017-04-27T08:20:49.160Z,856
2017-04-27T08:21:49.733Z,716
2017-04-27T08:22:50.307Z,928
2017-04-27T08:23:50.882Z,940
2017-04-27T08:24:51.457Z,964
2017-04-27T08:25:52.032Z,1000
2017-04-27T08:26:52.608Z,1008
2017-04-27T08:27:53.182Z,816
2017-04-27T08:28:53.758Z,1028
2017-04-27T08:29:54.333Z,1004
2017-04-27T08:30:54.906Z,980
2017-04-27T08:31:55.484Z,932
2017-04-27T08:32:56.059Z,668
2017-04-27T08:33:56.633Z,520
2017-04-27T08:34:57.209Z,500
2017-04-27T08:35:57.783Z,500
2017-04-27T08:36:58.360Z,512
2017-04-27T08:37:58.934Z,520
2017-04-27T08:38:59.509Z,532
2017-04-27T08:40:00.096Z,960
2017-04-27T08:41:00.673Z,980
2017-04-27T08:42:01.244Z,996
2017-04-27T08:43:01.818Z,1012
2017-04-27T08:44:02.394Z,1032
2017-04-27T08:45:02.970Z,1040
2017-04-27T08:46:03.544Z,1048
2017-04-27T08:47:04.125Z,1052
2017-04-27T08:48:04.696Z,1056
2017-04-27T08:49:05.279Z,1076
2017-04-27T08:50:05.850Z,1100
2017-04-27T08:51:06.423Z,1116
2017-04-27T08:52:06.999Z,1096
2017-04-27T08:53:07.573Z,1092
2017-04-27T08:54:08.147Z,816
2017-04-27T08:55:08.728Z,1060
2017-04-27T08:56:09.299Z,1060
2017-04-27T08:57:09.873Z,808
2017-04-27T08:58:10.463Z,820
2017-04-27T08:59:11.039Z,760
2017-04-27T09:00:11.613Z,1016
2017-04-27T09:01:12.190Z,712
2017-04-27T09:02:12.763Z,920
2017-04-27T09:03:13.341Z,1140
2017-04-27T09:04:13.921Z,1128
2017-04-27T09:05:14.491Z,1112
2017-04-27T09:06:15.080Z,1100
2017-04-27T09:07:15.654Z,1108
2017-04-27T09:08:16.230Z,1120
2017-04-27T09:09:16.808Z,1120
2017-04-27T09:10:17.383Z,1008
2017-04-27T09:11:17.960Z,1008
2017-04-27T09:12:18.535Z,1084
2017-04-27T09:13:19.111Z,1040
2017-04-27T09:14:19.687Z,640
2017-04-27T09:15:20.272Z,580
2017-04-27T09:16:20.854Z,1004
2017-04-27T09:17:21.431Z,1068
2017-04-27T09:18:22.009Z,1072
2017-04-27T09:19:22.582Z,868
2017-04-27T09:20:23.161Z,1076
2017-04-27T09:21:23.737Z,1080
2017-04-27T09:22:24.314Z,1088
2017-04-27T09:23:24.905Z,1108
2017-04-27T09:24:25.481Z,1128
2017-04-27T09:25:26.056Z,1144
2017-04-27T09:26:26.634Z,1148
2017-04-27T09:27:27.211Z,1152
2017-04-27T09:28:27.789Z,1152
2017-04-27T09:29:28.365Z,900
2017-04-27T09:30:28.939Z,1172
2017-04-27T09:31:29.517Z,792
2017-04-27T09:32:30.091Z,732
2017-04-27T09:33:30.669Z,784
2017-04-27T09:34:31.243Z,808
2017-04-27T09:35:31.818Z,736
2017-04-27T09:36:32.392Z,804
2017-04-27T09:37:32.967Z,768
2017-04-27T09:38:33.545Z,736
2017-04-27T09:39:34.119Z,720
2017-04-27T09:40:34.695Z,724
2017-04-27T09:41:35.269Z,728
2017-04-27T09:42:35.843Z,748
2017-04-27T09:43:36.417Z,792
2017-04-27T09:44:36.993Z,1312
2017-04-27T09:45:37.581Z,1320
2017-04-27T09:46:38.158Z,1312
2017-04-27T09:47:38.735Z,1304
2017-04-27T09:48:39.311Z,1308
2017-04-27T09:49:39.887Z,1296
2017-04-27T09:50:40.464Z,1268
2017-04-27T09:51:41.053Z,1252
2017-04-27T09:52:41.629Z,1236
2017-04-27T09:53:42.206Z,848
2017-04-27T09:54:42.796Z,792
2017-04-27T09:55:43.373Z,912
2017-04-27T09:56:43.948Z,1240
2017-04-27T09:57:44.525Z,824
2017-04-27T09:58:45.101Z,1040
2017-04-27T09:59:45.677Z,844
2017-04-27T10:00:46.256Z,1244
2017-04-27T10:01:46.832Z,1260
2017-04-27T10:02:47.412Z,1260
2017-04-27T10:03:47.983Z,1176
2017-04-27T10:04:48.561Z,868
2017-04-27T10:05:49.139Z,928
2017-04-27T10:06:49.716Z,1236
2017-04-27T10:07:50.294Z,1220
2017-04-27T10:08:50.887Z,712
2017-04-27T10:09:51.464Z,712
2017-04-27T10:10:52.040Z,1012
2017-04-27T10:11:52.617Z,772
2017-04-27T10:12:53.191Z,684
2017-04-27T10:13:53.767Z,680
2017-04-27T10:14:54.341Z,648
2017-04-27T10:15:54.919Z,640
2017-04-27T10:16:55.495Z,632
2017-04-27T10:17:56.070Z,644
2017-04-27T10:18:56.647Z,672
2017-04-27T10:19:57.222Z,728
2017-04-27T10:20:57.810Z,724
2017-04-27T10:21:58.387Z,720
2017-04-27T10:22:58.959Z,720
2017-04-27T10:23:59.536Z,724
2017-04-27T10:25:00.112Z,728
2017-04-27T10:26:00.690Z,732
2017-04-27T10:27:01.265Z,728
2017-04-27T10:28:01.839Z,728
2017-04-27T10:29:02.414Z,916
2017-04-27T10:30:02.989Z,1228
2017-04-27T10:31:03.567Z,1208
2017-04-27T10:32:04.146Z,1192
2017-04-27T10:33:04.722Z,1196
2017-04-27T10:34:05.312Z,1192
2017-04-27T10:35:05.889Z,1180
2017-04-27T10:36:06.467Z,1176
2017-04-27T10:37:07.045Z,1164
2017-04-27T10:38:07.623Z,1152
2017-04-27T10:39:08.199Z,856
2017-04-27T10:40:08.780Z,800
2017-04-27T10:41:09.370Z,1040
2017-04-27T10:42:09.949Z,1136
2017-04-27T10:43:10.527Z,1144
2017-04-27T10:44:11.103Z,888
2017-04-27T10:45:11.684Z,1216
2017-04-27T10:46:12.260Z,1268
2017-04-27T10:47:12.839Z,1160
2017-04-27T10:48:13.430Z,1284
2017-04-27T10:49:14.021Z,1304
2017-04-27T10:50:14.598Z,1304
2017-04-27T10:51:15.176Z,1308
2017-04-27T10:52:15.757Z,1308
2017-04-27T10:53:16.348Z,1316
2017-04-27T10:54:16.927Z,1312
2017-04-27T10:55:17.505Z,1312
2017-04-27T10:56:18.083Z,864
2017-04-27T10:57:18.660Z,1324
2017-04-27T10:58:19.241Z,1364
2017-04-27T10:59:19.817Z,840
2017-04-27T11:00:20.393Z,804
2017-04-27T11:01:20.972Z,780
2017-04-27T11:02:21.560Z,788
2017-04-27T11:03:22.136Z,832
2017-04-27T11:04:22.716Z,1296
2017-04-27T11:05:23.295Z,1280
2017-04-27T11:06:23.871Z,816
2017-04-27T11:07:24.462Z,772
2017-04-27T11:08:25.038Z,736
2017-04-27T11:09:25.619Z,676
2017-04-27T11:10:26.207Z,624
2017-04-27T11:11:26.784Z,588
2017-04-27T11:12:27.360Z,560
2017-04-27T11:13:27.938Z,544
2017-04-27T11:14:28.513Z,544
2017-04-27T11:15:29.091Z,544
2017-04-27T11:16:29.665Z,548
2017-04-27T11:17:30.254Z,552
2017-04-27T11:18:30.843Z,560
2017-04-27T11:19:31.419Z,580
2017-04-27T11:20:31.996Z,604
2017-04-27T11:21:32.572Z,1076
2017-04-27T11:22:33.151Z,1172
2017-04-27T11:23:33.730Z,1192
2017-04-27T11:24:34.308Z,1204
2017-04-27T11:25:34.887Z,1168
2017-04-27T11:26:35.464Z,1188
2017-04-27T11:27:36.045Z,1168
2017-04-27T11:28:36.623Z,1168
2017-04-27T11:29:37.215Z,1172
2017-04-27T11:30:37.793Z,1172
2017-04-27T11:31:38.374Z,1172
2017-04-27T11:32:38.952Z,1180
2017-04-27T11:33:39.529Z,1192
2017-04-27T11:34:40.106Z,1188
2017-04-27T11:35:40.685Z,1216
2017-04-27T11:36:49.363Z,1060
2017-04-27T11:37:42.838Z,1240
2017-04-27T11:38:43.415Z,812
2017-04-27T11:39:43.991Z,804
2017-04-27T11:40:44.569Z,808
2017-04-27T11:41:45.158Z,808
2017-04-27T11:42:45.735Z,792
2017-04-27T11:43:46.314Z,772
2017-04-27T11:44:46.903Z,748
2017-04-27T11:45:47.480Z,732
2017-04-27T11:46:48.061Z,716
2017-04-27T11:47:48.638Z,704
2017-04-27T11:48:49.215Z,700
2017-04-27T11:49:49.795Z,696
2017-04-27T11:50:50.373Z,700
2017-04-27T11:51:50.953Z,712
2017-04-27T11:52:51.529Z,732
2017-04-27T11:53:52.106Z,716
2017-04-27T11:54:52.686Z,728
2017-04-27T11:55:53.262Z,664
2017-04-27T11:56:53.839Z,640
2017-04-27T11:57:54.417Z,844
2017-04-27T11:58:54.995Z,568
2017-04-27T11:59:55.574Z,552
2017-04-27T12:00:56.149Z,544
2017-04-27T12:01:56.726Z,540
2017-04-27T12:02:57.301Z,532
2017-04-27T12:03:57.875Z,528
2017-04-27T12:04:58.455Z,524
2017-04-27T12:05:59.030Z,532
2017-04-27T12:06:59.609Z,532
2017-04-27T12:08:00.184Z,540
2017-04-27T12:09:00.760Z,552
2017-04-27T12:10:01.336Z,580
2017-04-27T12:11:01.915Z,1104
2017-04-27T12:12:02.495Z,1108
2017-04-27T12:13:03.073Z,1112
2017-04-27T12:14:03.651Z,1120
2017-04-27T12:15:04.229Z,1128
2017-04-27T12:16:04.808Z,1148
2017-04-27T12:17:05.384Z,788
2017-04-27T12:18:05.963Z,628
2017-04-27T12:19:06.543Z,652
2017-04-27T12:20:07.120Z,672
2017-04-27T12:21:07.693Z,680
2017-04-27T12:22:08.283Z,708
2017-04-27T12:23:08.859Z,736
2017-04-27T12:24:09.439Z,764
2017-04-27T12:25:10.013Z,784
2017-04-27T12:26:10.590Z,780
2017-04-27T12:27:11.167Z,776
2017-04-27T12:28:11.743Z,772
2017-04-27T12:29:12.321Z,772
2017-04-27T12:30:12.910Z,776
2017-04-27T12:31:13.491Z,780
2017-04-27T12:32:14.065Z,760
2017-04-27T12:33:14.793Z,748
2017-04-27T12:34:15.370Z,732
2017-04-27T12:35:15.945Z,708
2017-04-27T12:36:16.533Z,692
2017-04-27T12:37:17.109Z,692
2017-04-27T12:38:17.686Z,696
2017-04-27T12:39:18.275Z,688
2017-04-27T12:40:18.850Z,680
2017-04-27T12:41:19.429Z,668
2017-04-27T12:42:20.028Z,656
2017-04-27T12:43:20.606Z,656
2017-04-27T12:44:21.184Z,660
2017-04-27T12:45:21.761Z,660
2017-04-27T12:46:22.336Z,664
2017-04-27T12:47:22.913Z,668
2017-04-27T12:48:23.492Z,664
2017-04-27T12:49:24.068Z,660
2017-04-27T12:50:24.646Z,636
2017-04-27T12:51:25.225Z,616
2017-04-27T12:52:25.802Z,600
2017-04-27T12:53:26.380Z,592
2017-04-27T12:54:26.956Z,592
2017-04-27T12:55:27.532Z,592
2017-04-27T12:56:28.112Z,592
2017-04-27T12:57:28.688Z,584
2017-04-27T12:58:29.267Z,580
2017-04-27T12:59:29.845Z,580
2017-04-27T13:00:30.425Z,584
2017-04-27T13:01:31.002Z,588
2017-04-27T13:02:31.578Z,588
2017-04-27T13:03:32.157Z,592
2017-04-27T13:04:32.735Z,592
2017-04-27T13:05:33.311Z,580
2017-04-27T13:06:33.890Z,572
2017-04-27T13:07:34.466Z,568
2017-04-27T13:08:35.043Z,568
2017-04-27T13:09:35.622Z,564
2017-04-27T13:10:36.199Z,564
2017-04-27T13:11:36.775Z,568
2017-04-27T13:12:37.365Z,584
2017-04-27T13:13:37.942Z,600
2017-04-27T13:14:38.518Z,628
2017-04-27T13:15:39.096Z,668
2017-04-27T13:16:39.673Z,716
2017-04-27T13:17:40.252Z,768
2017-04-27T13:18:40.829Z,832
2017-04-27T13:19:41.406Z,896
2017-04-27T13:20:41.985Z,948
2017-04-27T13:21:42.560Z,988
2017-04-27T13:22:43.139Z,1024
2017-04-27T13:23:43.716Z,1044
2017-04-27T13:24:44.295Z,1072
2017-04-27T13:25:44.873Z,1072
2017-04-27T13:26:45.451Z,1056
2017-04-27T13:27:46.028Z,1404
2017-04-27T13:28:46.608Z,1468
2017-04-27T13:29:47.185Z,1076
2017-04-27T13:30:47.764Z,1172
2017-04-27T13:31:48.341Z,1636
2017-04-27T13:32:48.924Z,1616
2017-04-27T13:33:49.512Z,1668
2017-04-27T13:34:50.089Z,1644
2017-04-27T13:35:50.668Z,1296
2017-04-27T13:36:51.257Z,1052
2017-04-27T13:37:51.839Z,1072
2017-04-27T13:38:52.413Z,1124
2017-04-27T13:39:53.002Z,1700
2017-04-27T13:40:53.579Z,1780
2017-04-27T13:41:54.158Z,1860
2017-04-27T13:42:54.738Z,1736
2017-04-27T13:43:55.318Z,1800
2017-04-27T13:44:55.896Z,1724
2017-04-27T13:45:56.476Z,1716
2017-04-27T13:46:57.056Z,1692
2017-04-27T13:47:57.635Z,1552
2017-04-27T13:48:58.214Z,1212
2017-04-27T13:49:58.796Z,1572
2017-04-27T13:50:59.374Z,1560
2017-04-27T13:51:59.953Z,1512
2017-04-27T13:53:00.545Z,1456
2017-04-27T13:54:01.125Z,1400
2017-04-27T13:55:01.705Z,1008
2017-04-27T13:56:02.284Z,704
2017-04-27T13:57:02.865Z,596
2017-04-27T13:58:03.442Z,548
2017-04-27T13:59:04.021Z,516
2017-04-27T14:00:04.601Z,484
2017-04-27T14:01:05.193Z,472
2017-04-27T14:02:05.779Z,456
2017-04-27T14:03:06.353Z,440
2017-04-27T14:04:06.932Z,428
2017-04-27T14:05:07.514Z,412
2017-04-27T14:06:08.099Z,404